createdAt,value
2018-11-13T00:00:21.216Z,986.93
2018-11-13T00:01:21.160Z,986.96
2018-11-13T00:02:21.136Z,986.95
2018-11-13T00:03:21.137Z,986.92
2018-11-13T00:04:21.212Z,986.97
2018-11-13T00:05:21.080Z,986.91
2018-11-13T00:06:21.046Z,986.92
2018-11-13T00:07:21.043Z,986.94
2018-11-13T00:08:21.063Z,986.94
2018-11-13T00:09:21.067Z,987.00
2018-11-13T00:10:20.928Z,987.00
2018-11-13T00:11:20.925Z,987.00
2018-11-13T00:12:20.895Z,986.96
2018-11-13T00:13:20.860Z,986.96
2018-11-13T00:14:20.948Z,986.94
2018-11-13T00:15:20.909Z,986.95
2018-11-13T00:16:20.805Z,986.96
2018-11-13T00:17:20.776Z,986.98
2018-11-13T00:18:20.756Z,987.00
2018-11-13T00:19:20.794Z,987.01
2018-11-13T00:20:20.758Z,987.01
2018-11-13T00:21:20.777Z,987.03
2018-11-13T00:22:20.876Z,987.05
2018-11-13T00:23:20.610Z,987.07
2018-11-13T00:24:20.580Z,987.08
2018-11-13T00:25:20.573Z,987.08
2018-11-13T00:26:20.631Z,987.09
2018-11-13T00:27:20.573Z,987.08
2018-11-13T00:28:20.539Z,987.09
2018-11-13T00:29:20.508Z,987.13
2018-11-13T00:30:20.459Z,987.18
2018-11-13T00:31:20.429Z,987.20
2018-11-13T00:32:20.483Z,987.16
2018-11-13T00:33:20.364Z,987.18
2018-11-13T00:34:20.342Z,987.20
2018-11-13T00:35:20.340Z,987.17
2018-11-13T00:36:20.286Z,987.17
2018-11-13T00:37:20.273Z,987.16
2018-11-13T00:38:20.526Z,987.15
2018-11-13T00:39:20.727Z,987.17
2018-11-13T00:40:20.191Z,987.20
2018-11-13T00:41:20.183Z,987.25
2018-11-13T00:42:20.125Z,987.23
2018-11-13T00:43:20.233Z,987.25
2018-11-13T00:44:30.380Z,987.26
2018-11-13T00:46:30.323Z,987.34
2018-11-13T00:47:30.287Z,987.28
2018-11-13T00:48:20.111Z,987.31
2018-11-13T00:49:19.960Z,987.31
2018-11-13T00:50:19.910Z,987.37
2018-11-13T00:51:19.924Z,987.39
2018-11-13T00:52:20.481Z,987.36
2018-11-13T00:53:19.941Z,987.38
2018-11-13T00:54:20.268Z,987.39
2018-11-13T00:55:20.536Z,987.39
2018-11-13T00:56:19.956Z,987.38
2018-11-13T00:57:19.760Z,987.40
2018-11-13T00:58:19.735Z,987.39
2018-11-13T00:59:20.072Z,987.41
2018-11-13T01:00:20.291Z,987.43
2018-11-13T01:01:19.702Z,987.40
2018-11-13T01:02:19.678Z,987.45
2018-11-13T01:03:19.590Z,987.42
2018-11-13T01:04:20.096Z,987.47
2018-11-13T01:05:19.664Z,987.45
2018-11-13T01:06:20.042Z,987.47
2018-11-13T01:07:19.499Z,987.46
2018-11-13T01:08:19.608Z,987.49
2018-11-13T01:09:19.443Z,987.51
2018-11-13T01:10:20.108Z,987.49
2018-11-13T01:11:19.628Z,987.49
2018-11-13T01:12:19.384Z,987.48
2018-11-13T01:13:19.490Z,987.47
2018-11-13T01:14:19.823Z,987.53
2018-11-13T01:15:19.670Z,987.53
2018-11-13T01:16:19.891Z,987.59
2018-11-13T01:17:19.352Z,987.58
2018-11-13T01:18:19.546Z,987.61
2018-11-13T01:19:19.224Z,987.64
2018-11-13T01:20:19.253Z,987.66
2018-11-13T01:21:19.193Z,987.71
2018-11-13T01:22:19.367Z,987.69
2018-11-13T01:23:20.254Z,987.71
2018-11-13T01:24:19.441Z,987.72
2018-11-13T01:25:19.192Z,987.75
2018-11-13T01:26:19.273Z,987.75
2018-11-13T01:27:20.016Z,987.74
2018-11-13T01:28:19.144Z,987.77
2018-11-13T01:29:19.296Z,987.74
2018-11-13T01:30:19.066Z,987.78
2018-11-13T01:31:19.049Z,987.77
2018-11-13T01:32:19.083Z,987.79
2018-11-13T01:33:18.955Z,987.84
2018-11-13T01:34:18.939Z,987.84
2018-11-13T01:35:18.874Z,987.82
2018-11-13T01:36:18.911Z,987.85
2018-11-13T01:37:18.931Z,987.89
2018-11-13T01:38:18.999Z,987.89
2018-11-13T01:39:18.845Z,987.92
2018-11-13T01:40:18.953Z,987.91
2018-11-13T01:41:18.866Z,987.95
2018-11-13T01:42:18.996Z,987.96
2018-11-13T01:43:19.873Z,987.99
2018-11-13T01:44:18.633Z,988.00
2018-11-13T01:45:19.110Z,988.00
2018-11-13T01:46:18.623Z,987.98
2018-11-13T01:47:18.518Z,988.01
2018-11-13T01:48:18.471Z,988.02
2018-11-13T01:49:18.527Z,988.01
2018-11-13T01:50:18.406Z,988.02
2018-11-13T01:51:18.490Z,988.02
2018-11-13T01:52:18.454Z,988.04
2018-11-13T01:53:18.410Z,988.02
2018-11-13T01:54:19.466Z,988.05
2018-11-13T01:55:18.357Z,988.03
2018-11-13T01:56:18.344Z,988.03
2018-11-13T01:57:18.344Z,988.06
2018-11-13T01:58:18.221Z,988.05
2018-11-13T01:59:18.637Z,988.06
2018-11-13T02:00:18.213Z,988.05
2018-11-13T02:01:18.161Z,988.02
2018-11-13T02:02:18.102Z,988.05
2018-11-13T02:03:18.083Z,988.09
2018-11-13T02:04:18.554Z,988.07
2018-11-13T02:05:18.172Z,988.10
2018-11-13T02:06:17.999Z,988.09
2018-11-13T02:07:18.105Z,988.11
2018-11-13T02:08:18.006Z,988.10
2018-11-13T02:09:17.952Z,988.14
2018-11-13T02:10:18.060Z,988.19
2018-11-13T02:11:17.975Z,988.18
2018-11-13T02:12:17.858Z,988.18
2018-11-13T02:13:18.349Z,988.20
2018-11-13T02:14:17.816Z,988.17
2018-11-13T02:15:18.617Z,988.20
2018-11-13T02:16:17.775Z,988.18
2018-11-13T02:17:17.714Z,988.21
2018-11-13T02:18:18.213Z,988.19
2018-11-13T02:19:17.792Z,988.21
2018-11-13T02:20:17.825Z,988.22
2018-11-13T02:21:17.620Z,988.22
2018-11-13T02:22:18.168Z,988.18
2018-11-13T02:23:17.533Z,988.23
2018-11-13T02:24:17.548Z,988.24
2018-11-13T02:25:17.591Z,988.26
2018-11-13T02:26:17.495Z,988.26
2018-11-13T02:27:17.495Z,988.27
2018-11-13T02:28:17.409Z,988.28
2018-11-13T02:29:17.430Z,988.26
2018-11-13T02:30:17.413Z,988.28
2018-11-13T02:31:18.038Z,988.27
2018-11-13T02:32:17.388Z,988.27
2018-11-13T02:33:17.520Z,988.28
2018-11-13T02:34:17.716Z,988.27
2018-11-13T02:35:17.290Z,988.27
2018-11-13T02:36:17.326Z,988.26
2018-11-13T02:37:17.204Z,988.26
2018-11-13T02:38:17.211Z,988.26
2018-11-13T02:39:17.123Z,988.26
2018-11-13T02:40:17.116Z,988.28
2018-11-13T02:41:17.091Z,988.28
2018-11-13T02:42:17.185Z,988.26
2018-11-13T02:43:17.040Z,988.27
2018-11-13T02:44:17.531Z,988.25
2018-11-13T02:45:17.542Z,988.26
2018-11-13T02:46:17.128Z,988.29
2018-11-13T02:47:17.272Z,988.28
2018-11-13T02:48:17.661Z,988.33
2018-11-13T02:49:16.975Z,988.34
2018-11-13T02:50:16.870Z,988.34
2018-11-13T02:51:16.817Z,988.37
2018-11-13T02:52:17.139Z,988.38
2018-11-13T02:53:16.829Z,988.36
2018-11-13T02:54:16.833Z,988.36
2018-11-13T02:55:17.273Z,988.37
2018-11-13T02:56:16.722Z,988.36
2018-11-13T02:57:16.769Z,988.40
2018-11-13T02:58:16.646Z,988.40
2018-11-13T02:59:16.685Z,988.42
2018-11-13T03:00:16.806Z,988.42
2018-11-13T03:01:16.558Z,988.44
2018-11-13T03:02:16.730Z,988.46
2018-11-13T03:03:16.530Z,988.53
2018-11-13T03:04:16.479Z,988.53
2018-11-13T03:05:16.539Z,988.54
2018-11-13T03:06:16.564Z,988.57
2018-11-13T03:07:16.580Z,988.56
2018-11-13T03:08:16.652Z,988.57
2018-11-13T03:09:16.414Z,988.55
2018-11-13T03:10:16.444Z,988.58
2018-11-13T03:11:16.661Z,988.59
2018-11-13T03:12:16.305Z,988.61
2018-11-13T03:13:16.420Z,988.58
2018-11-13T03:14:16.996Z,988.58
2018-11-13T03:15:16.406Z,988.62
2018-11-13T03:16:16.200Z,988.58
2018-11-13T03:17:16.341Z,988.63
2018-11-13T03:18:16.265Z,988.67
2018-11-13T03:19:16.399Z,988.67
2018-11-13T03:20:16.712Z,988.70
2018-11-13T03:21:16.239Z,988.67
2018-11-13T03:22:16.174Z,988.67
2018-11-13T03:23:16.054Z,988.70
2018-11-13T03:24:16.180Z,988.72
2018-11-13T03:25:16.059Z,988.74
2018-11-13T03:26:15.974Z,988.72
2018-11-13T03:27:15.895Z,988.75
2018-11-13T03:28:15.842Z,988.77
2018-11-13T03:29:15.856Z,988.75
2018-11-13T03:30:15.923Z,988.72
2018-11-13T03:31:15.847Z,988.72
2018-11-13T03:32:15.763Z,988.76
2018-11-13T03:33:15.803Z,988.78
2018-11-13T03:34:15.734Z,988.79
2018-11-13T03:35:15.798Z,988.82
2018-11-13T03:36:15.657Z,988.82
2018-11-13T03:37:15.632Z,988.84
2018-11-13T03:38:15.651Z,988.81
2018-11-13T03:39:15.654Z,988.80
2018-11-13T03:40:15.670Z,988.80
2018-11-13T03:41:15.525Z,988.83
2018-11-13T03:42:15.507Z,988.78
2018-11-13T03:43:15.491Z,988.81
2018-11-13T03:44:15.497Z,988.78
2018-11-13T03:45:15.426Z,988.78
2018-11-13T03:46:15.544Z,988.79
2018-11-13T03:47:15.370Z,988.79
2018-11-13T03:48:15.379Z,988.82
2018-11-13T03:49:15.310Z,988.80
2018-11-13T03:50:15.300Z,988.79
2018-11-13T03:51:15.368Z,988.78
2018-11-13T03:52:15.352Z,988.77
2018-11-13T03:53:15.247Z,988.81
2018-11-13T03:54:15.195Z,988.85
2018-11-13T03:55:15.219Z,988.85
2018-11-13T03:56:15.150Z,988.85
2018-11-13T03:57:15.229Z,988.88
2018-11-13T03:58:15.694Z,988.86
2018-11-13T03:59:15.094Z,988.84
2018-11-13T04:00:15.051Z,988.89
2018-11-13T04:01:15.002Z,988.88
2018-11-13T04:02:15.102Z,988.89
2018-11-13T04:03:14.956Z,988.85
2018-11-13T04:04:14.928Z,988.85
2018-11-13T04:05:14.911Z,988.81
2018-11-13T04:06:14.883Z,988.83
2018-11-13T04:07:14.952Z,988.81
2018-11-13T04:08:14.851Z,988.81
2018-11-13T04:09:14.802Z,988.83
2018-11-13T04:10:14.804Z,988.80
2018-11-13T04:11:14.754Z,988.79
2018-11-13T04:12:14.822Z,988.79
2018-11-13T04:13:14.684Z,988.81
2018-11-13T04:14:14.672Z,988.83
2018-11-13T04:15:14.647Z,988.87
2018-11-13T04:16:15.153Z,988.86
2018-11-13T04:17:14.704Z,988.86
2018-11-13T04:18:14.580Z,988.87
2018-11-13T04:19:14.528Z,988.88
2018-11-13T04:20:14.525Z,988.88
2018-11-13T04:21:14.503Z,988.88
2018-11-13T04:22:14.458Z,988.88
2018-11-13T04:23:14.551Z,988.81
2018-11-13T04:24:14.421Z,988.80
2018-11-13T04:25:14.379Z,988.80
2018-11-13T04:26:14.356Z,988.79
2018-11-13T04:27:14.346Z,988.77
2018-11-13T04:28:14.350Z,988.77
2018-11-13T04:29:14.412Z,988.78
2018-11-13T04:30:14.242Z,988.77
2018-11-13T04:31:14.238Z,988.79
2018-11-13T04:32:14.209Z,988.78
2018-11-13T04:33:14.184Z,988.79
2018-11-13T04:34:14.331Z,988.78
2018-11-13T04:35:14.128Z,988.78
2018-11-13T04:36:14.111Z,988.81
2018-11-13T04:37:14.073Z,988.78
2018-11-13T04:38:14.051Z,988.76
2018-11-13T04:39:14.110Z,988.73
2018-11-13T04:40:14.015Z,988.73
2018-11-13T04:41:13.985Z,988.69
2018-11-13T04:42:13.950Z,988.68
2018-11-13T04:43:13.927Z,988.67
2018-11-13T04:44:13.983Z,988.67
2018-11-13T04:45:13.865Z,988.70
2018-11-13T04:46:13.880Z,988.67
2018-11-13T04:47:13.811Z,988.68
2018-11-13T04:48:13.784Z,988.72
2018-11-13T04:49:13.844Z,988.73
2018-11-13T04:50:13.718Z,988.73
2018-11-13T04:51:13.703Z,988.73
2018-11-13T04:52:13.692Z,988.68
2018-11-13T04:53:13.710Z,988.65
2018-11-13T04:54:13.718Z,988.65
2018-11-13T04:55:13.591Z,988.64
2018-11-13T04:56:13.590Z,988.63
2018-11-13T04:57:13.560Z,988.61
2018-11-13T04:58:13.540Z,988.63
2018-11-13T04:59:13.588Z,988.62
2018-11-13T05:00:13.558Z,988.67
2018-11-13T05:01:13.429Z,988.67
2018-11-13T05:02:13.433Z,988.62
2018-11-13T05:03:13.424Z,988.65
2018-11-13T05:04:13.370Z,988.67
2018-11-13T05:05:13.376Z,988.69
2018-11-13T05:06:13.456Z,988.67
2018-11-13T05:07:13.268Z,988.66
2018-11-13T05:08:13.311Z,988.66
2018-11-13T05:09:13.227Z,988.64
2018-11-13T05:10:13.306Z,988.64
2018-11-13T05:11:13.322Z,988.66
2018-11-13T05:12:13.198Z,988.65
2018-11-13T05:13:13.129Z,988.62
2018-11-13T05:14:13.098Z,988.59
2018-11-13T05:15:13.101Z,988.59
2018-11-13T05:16:13.143Z,988.55
2018-11-13T05:17:13.014Z,988.55
2018-11-13T05:18:13.070Z,988.52
2018-11-13T05:19:13.031Z,988.53
2018-11-13T05:20:12.973Z,988.56
2018-11-13T05:21:13.033Z,988.59
2018-11-13T05:22:12.902Z,988.59
2018-11-13T05:23:12.916Z,988.66
2018-11-13T05:24:12.846Z,988.69
2018-11-13T05:25:12.875Z,988.71
2018-11-13T05:26:12.876Z,988.73
2018-11-13T05:27:12.757Z,988.75
2018-11-13T05:28:12.782Z,988.75
2018-11-13T05:29:12.713Z,988.74
2018-11-13T05:30:12.683Z,988.73
2018-11-13T05:31:12.756Z,988.70
2018-11-13T05:32:12.645Z,988.69
2018-11-13T05:33:12.596Z,988.65
2018-11-13T05:34:12.575Z,988.63
2018-11-13T05:35:12.547Z,988.66
2018-11-13T05:36:12.523Z,988.66
2018-11-13T05:37:12.606Z,988.67
2018-11-13T05:38:12.461Z,988.65
2018-11-13T05:39:12.452Z,988.65
2018-11-13T05:40:12.436Z,988.64
2018-11-13T05:41:12.398Z,988.59
2018-11-13T05:42:12.466Z,988.59
2018-11-13T05:43:12.480Z,988.56
2018-11-13T05:44:12.317Z,988.53
2018-11-13T05:45:12.281Z,988.51
2018-11-13T05:46:12.261Z,988.50
2018-11-13T05:47:12.290Z,988.49
2018-11-13T05:48:12.208Z,988.45
2018-11-13T05:49:12.287Z,988.44
2018-11-13T05:50:12.157Z,988.43
2018-11-13T05:51:12.129Z,988.43
2018-11-13T05:52:12.121Z,988.41
2018-11-13T05:53:12.083Z,988.42
2018-11-13T05:54:12.256Z,988.42
2018-11-13T05:55:12.013Z,988.43
2018-11-13T05:56:12.010Z,988.38
2018-11-13T05:57:12.030Z,988.39
2018-11-13T05:58:11.956Z,988.39
2018-11-13T05:59:12.031Z,988.40
2018-11-13T06:00:11.885Z,988.40
2018-11-13T06:01:11.887Z,988.37
2018-11-13T06:02:11.861Z,988.34
2018-11-13T06:03:11.816Z,988.29
2018-11-13T06:04:11.891Z,988.29
2018-11-13T06:05:11.910Z,988.26
2018-11-13T06:06:11.725Z,988.25
2018-11-13T06:07:11.714Z,988.27
2018-11-13T06:08:11.693Z,988.26
2018-11-13T06:09:11.854Z,988.29
2018-11-13T06:10:11.677Z,988.32
2018-11-13T06:11:11.593Z,988.36
2018-11-13T06:12:11.583Z,988.36
2018-11-13T06:13:11.608Z,988.36
2018-11-13T06:14:11.639Z,988.38
2018-11-13T06:15:11.658Z,988.40
2018-11-13T06:16:11.484Z,988.38
2018-11-13T06:17:11.461Z,988.36
2018-11-13T06:18:11.421Z,988.38
2018-11-13T06:19:11.466Z,988.35
2018-11-13T06:20:11.475Z,988.31
2018-11-13T06:21:11.442Z,988.31
2018-11-13T06:22:11.332Z,988.30
2018-11-13T06:23:11.338Z,988.25
2018-11-13T06:24:11.260Z,988.26
2018-11-13T06:25:11.237Z,988.22
2018-11-13T06:26:11.308Z,988.22
2018-11-13T06:27:11.180Z,988.21
2018-11-13T06:28:11.219Z,988.13
2018-11-13T06:29:11.121Z,988.14
2018-11-13T06:30:11.162Z,988.16
2018-11-13T06:31:11.174Z,988.16
2018-11-13T06:32:11.046Z,988.15
2018-11-13T06:33:11.062Z,988.14
2018-11-13T06:34:11.076Z,988.14
2018-11-13T06:35:10.979Z,988.12
2018-11-13T06:36:11.056Z,988.10
2018-11-13T06:37:10.931Z,988.09
2018-11-13T06:38:10.884Z,988.09
2018-11-13T06:39:10.867Z,988.09
2018-11-13T06:40:10.847Z,988.03
2018-11-13T06:41:10.905Z,988.03
2018-11-13T06:42:10.806Z,988.02
2018-11-13T06:43:10.754Z,988.02
2018-11-13T06:44:10.783Z,988.00
2018-11-13T06:45:10.712Z,988.01
2018-11-13T06:46:10.737Z,987.96
2018-11-13T06:47:10.751Z,987.93
2018-11-13T06:48:10.632Z,987.91
2018-11-13T06:49:10.756Z,987.88
2018-11-13T06:50:10.567Z,987.86
2018-11-13T06:51:10.586Z,987.88
2018-11-13T06:52:10.639Z,987.86
2018-11-13T06:53:10.513Z,987.85
2018-11-13T06:54:10.467Z,987.85
2018-11-13T06:55:10.490Z,987.88
2018-11-13T06:56:10.424Z,987.84
2018-11-13T06:57:10.410Z,987.88
2018-11-13T06:58:10.508Z,987.87
2018-11-13T06:59:10.339Z,987.87
2018-11-13T07:00:10.327Z,987.86
2018-11-13T07:01:10.296Z,987.87
2018-11-13T07:02:10.266Z,987.87
2018-11-13T07:03:10.252Z,987.86
2018-11-13T07:04:10.393Z,987.88
2018-11-13T07:05:10.303Z,987.88
2018-11-13T07:06:10.150Z,987.88
2018-11-13T07:07:10.120Z,987.82
2018-11-13T07:08:10.098Z,987.83
2018-11-13T07:09:10.193Z,987.80
2018-11-13T07:10:10.060Z,987.78
2018-11-13T07:11:10.054Z,987.79
2018-11-13T07:12:09.991Z,987.78
2018-11-13T07:13:09.966Z,987.74
2018-11-13T07:14:10.058Z,987.80
2018-11-13T07:15:09.928Z,987.78
2018-11-13T07:16:09.898Z,987.81
2018-11-13T07:17:09.879Z,987.78
2018-11-13T07:18:09.848Z,987.74
2018-11-13T07:19:09.820Z,987.75
2018-11-13T07:20:09.929Z,987.73
2018-11-13T07:21:09.754Z,987.76
2018-11-13T07:22:09.757Z,987.74
2018-11-13T07:23:09.721Z,987.75
2018-11-13T07:24:09.674Z,987.75
2018-11-13T07:25:09.825Z,987.75
2018-11-13T07:26:09.648Z,987.77
2018-11-13T07:27:09.613Z,987.78
2018-11-13T07:28:09.685Z,987.81
2018-11-13T07:29:09.603Z,987.83
2018-11-13T07:30:09.652Z,987.78
2018-11-13T07:31:09.518Z,987.73
2018-11-13T07:32:09.472Z,987.71
2018-11-13T07:33:09.470Z,987.69
2018-11-13T07:34:09.445Z,987.68
2018-11-13T07:35:09.412Z,987.71
2018-11-13T07:36:09.467Z,987.74
2018-11-13T07:37:09.337Z,987.78
2018-11-13T07:38:09.394Z,987.79
2018-11-13T07:39:09.288Z,987.79
2018-11-13T07:40:09.665Z,987.81
2018-11-13T07:41:09.437Z,987.79
2018-11-13T07:42:09.812Z,987.78
2018-11-13T07:43:09.181Z,987.81
2018-11-13T07:44:09.172Z,987.82
2018-11-13T07:45:09.119Z,987.78
2018-11-13T07:46:09.641Z,987.75
2018-11-13T07:47:09.197Z,987.72
2018-11-13T07:48:09.477Z,987.71
2018-11-13T07:49:09.047Z,987.69
2018-11-13T07:50:09.001Z,987.65
2018-11-13T07:51:09.090Z,987.67
2018-11-13T07:54:09.472Z,987.65
2018-11-13T07:55:09.367Z,987.62
2018-11-13T07:56:09.318Z,987.67
2018-11-13T07:57:09.290Z,987.70
2018-11-13T07:58:09.265Z,987.70
2018-11-13T07:59:09.246Z,987.72
2018-11-13T08:00:09.321Z,987.74
2018-11-13T08:01:09.212Z,987.71
2018-11-13T08:02:09.140Z,987.69
2018-11-13T08:03:09.150Z,987.70
2018-11-13T08:04:09.130Z,987.66
2018-11-13T08:05:09.182Z,987.65
2018-11-13T08:06:09.135Z,987.62
2018-11-13T08:07:09.063Z,987.63
2018-11-13T08:08:09.985Z,987.63
2018-11-13T08:13:09.949Z,987.68
2018-11-13T08:14:09.853Z,987.70
2018-11-13T08:15:09.234Z,987.70
2018-11-13T08:16:10.655Z,987.65
2018-11-13T08:17:10.319Z,987.64
2018-11-13T08:18:10.202Z,987.67
2018-11-13T08:19:09.445Z,987.64
2018-11-13T08:21:09.614Z,987.63
2018-11-13T08:22:09.671Z,987.66
2018-11-13T08:24:10.581Z,987.63
2018-11-13T08:25:09.132Z,987.63
2018-11-13T08:26:09.657Z,987.62
2018-11-13T08:27:09.669Z,987.59
2018-11-13T08:28:10.283Z,987.55
2018-11-13T08:29:09.023Z,987.59
2018-11-13T08:31:09.306Z,987.57
2018-11-13T08:32:09.689Z,987.50
2018-11-13T08:33:08.942Z,987.51
2018-11-13T08:34:09.060Z,987.50
2018-11-13T08:35:09.208Z,987.45
2018-11-13T08:36:08.824Z,987.45
2018-11-13T08:38:08.630Z,987.47
2018-11-13T08:42:08.919Z,987.56
2018-11-13T08:44:08.889Z,987.58
2018-11-13T08:46:08.811Z,987.63
2018-11-13T08:47:08.581Z,987.58
2018-11-13T08:49:09.078Z,987.55
2018-11-13T08:51:08.392Z,987.58
2018-11-13T08:53:09.269Z,987.60
2018-11-13T08:55:08.684Z,987.57
2018-11-13T08:56:08.291Z,987.58
2018-11-13T08:57:08.725Z,987.60
2018-11-13T08:59:09.043Z,987.64
2018-11-13T09:00:08.891Z,987.68
2018-11-13T09:02:08.052Z,987.71
2018-11-13T09:03:08.485Z,987.70
2018-11-13T09:04:09.481Z,987.69
2018-11-13T09:05:08.347Z,987.69
2018-11-13T09:07:08.084Z,987.71
2018-11-13T09:08:08.363Z,987.73
2018-11-13T09:09:07.913Z,987.75
2018-11-13T09:10:08.354Z,987.77
2018-11-13T09:11:08.158Z,987.81
2018-11-13T09:12:07.647Z,987.81
2018-11-13T09:13:08.838Z,987.84
2018-11-13T09:15:08.465Z,987.85
2018-11-13T09:16:08.040Z,987.87
2018-11-13T09:17:07.224Z,987.88
2018-11-13T09:18:07.403Z,987.87
2018-11-13T09:19:07.240Z,987.86
2018-11-13T09:20:07.110Z,987.84
2018-11-13T09:21:07.637Z,987.87
2018-11-13T09:22:07.064Z,987.86
2018-11-13T09:23:07.097Z,987.84
2018-11-13T09:24:07.115Z,987.83
2018-11-13T09:25:06.977Z,987.81
2018-11-13T09:26:06.946Z,987.81
2018-11-13T09:27:06.951Z,987.81
2018-11-13T09:28:06.910Z,987.77
2018-11-13T09:29:07.023Z,987.77
2018-11-13T09:30:06.980Z,987.78
2018-11-13T09:31:06.929Z,987.73
2018-11-13T09:32:06.881Z,987.74
2018-11-13T09:34:06.854Z,987.76
2018-11-13T09:35:07.623Z,987.77
2018-11-13T09:37:07.376Z,987.77
2018-11-13T09:38:07.076Z,987.77
2018-11-13T09:40:07.098Z,987.77
2018-11-13T09:41:06.562Z,987.76
2018-11-13T09:42:06.535Z,987.74
2018-11-13T09:43:06.502Z,987.77
2018-11-13T09:44:06.587Z,987.78
2018-11-13T09:45:06.477Z,987.83
2018-11-13T09:46:06.581Z,987.87
2018-11-13T09:47:06.409Z,987.86
2018-11-13T09:48:06.370Z,987.87
2018-11-13T09:49:06.342Z,987.90
2018-11-13T09:50:06.431Z,987.90
2018-11-13T09:51:07.344Z,987.89
2018-11-13T09:52:07.258Z,987.92
2018-11-13T09:53:07.285Z,987.94
2018-11-13T09:54:06.891Z,987.95
2018-11-13T09:55:06.734Z,987.97
2018-11-13T09:56:06.915Z,987.96
2018-11-13T09:57:06.997Z,987.99
2018-11-13T10:00:06.991Z,988.04
2018-11-13T10:01:07.397Z,988.02
2018-11-13T10:02:07.416Z,988.03
2018-11-13T10:03:08.039Z,988.04
2018-11-13T10:04:07.051Z,988.01
2018-11-13T10:06:06.621Z,988.04
2018-11-13T10:07:06.608Z,988.05
2018-11-13T10:08:07.810Z,988.05
2018-11-13T10:10:06.371Z,988.02
2018-11-13T10:12:06.563Z,987.95
2018-11-13T10:14:06.605Z,987.97
2018-11-13T10:15:07.729Z,987.93
2018-11-13T10:18:08.385Z,987.93
2018-11-13T10:19:06.084Z,987.90
2018-11-13T10:20:06.726Z,987.93
2018-11-13T10:21:06.312Z,987.92
2018-11-13T10:25:05.962Z,987.96
2018-11-13T10:27:05.761Z,987.94
2018-11-13T10:29:06.024Z,987.98
2018-11-13T10:30:07.223Z,987.98
2018-11-13T10:33:06.224Z,988.07
2018-11-13T10:35:05.650Z,988.13
2018-11-13T10:36:05.236Z,988.15
2018-11-13T10:37:06.446Z,988.16
2018-11-13T10:38:05.692Z,988.19
2018-11-13T10:39:05.240Z,988.14
2018-11-13T10:40:05.568Z,988.15
2018-11-13T10:42:05.363Z,988.11
2018-11-13T10:43:06.558Z,988.14
2018-11-13T10:44:06.632Z,988.13
2018-11-13T10:46:06.460Z,988.15
2018-11-13T10:49:05.543Z,988.20
2018-11-13T10:50:06.229Z,988.24
2018-11-13T10:51:06.743Z,988.26
2018-11-13T10:52:05.419Z,988.31
2018-11-13T10:54:05.930Z,988.40
2018-11-13T10:59:05.362Z,988.51
2018-11-13T11:00:05.386Z,988.50
2018-11-13T11:01:05.057Z,988.54
2018-11-13T11:02:05.773Z,988.54
2018-11-13T11:03:04.880Z,988.53
2018-11-13T11:04:05.296Z,988.57
2018-11-13T11:05:04.856Z,988.58
2018-11-13T11:06:04.746Z,988.60
2018-11-13T11:10:04.917Z,988.60
2018-11-13T11:12:04.667Z,988.65
2018-11-13T11:13:05.631Z,988.66
2018-11-13T11:14:04.811Z,988.65
2018-11-13T11:16:05.080Z,988.66
2018-11-13T11:17:06.252Z,988.65
2018-11-13T11:18:05.277Z,988.72
2018-11-13T11:19:05.339Z,988.72
2018-11-13T11:20:04.448Z,988.74
2018-11-13T11:21:05.017Z,988.74
2018-11-13T11:24:04.372Z,988.75
2018-11-13T11:25:04.530Z,988.77
2018-11-13T11:27:04.472Z,988.76
2018-11-13T11:28:05.136Z,988.74
2018-11-13T11:29:04.580Z,988.79
2018-11-13T11:31:05.497Z,988.70
2018-11-13T11:32:04.963Z,988.76
2018-11-13T11:33:04.431Z,988.74
2018-11-13T11:34:04.011Z,988.76
2018-11-13T11:36:04.281Z,988.80
2018-11-13T11:37:04.194Z,988.81
2018-11-13T11:38:04.031Z,988.84
2018-11-13T11:39:03.992Z,988.87
2018-11-13T11:40:04.105Z,988.92
2018-11-13T11:41:04.812Z,988.97
2018-11-13T11:42:04.021Z,989.01
2018-11-13T11:43:03.746Z,989.02
2018-11-13T11:47:04.465Z,988.87
2018-11-13T11:48:04.038Z,988.87
